KHDE

Brewster Field Airport

Holdrege, Nebraska, USA
METAR KHDE 170655Z AUTO 22006KT 10SM CLR 02/M02 A3025 RMK AO2 T00151020
Observed Flight Rules
Dec-17 @ 06:55 UTC (32 minutes ago) Visual Flight Rules
Wind Visibility Clouds
220° at 6 knots 10 miles
  • Clear skies
Temperatures Readings
Current 2°C / 36°F
Dewpoint -2°C / 28°F
Humidity 75%
Altimeter 30.25" Hg
Pressure 1024 hPa
Elevation 705
METAR KHDE 170655Z AUTO 22006KT 10SM CLR 02/M02 A3025 RMK AO2 T00151020
Observed Flight Rules
Dec-17 @ 06:55 UTC
(32 minutes ago)
VFR
Wind Visibility
220° at 6 knots 10 miles
Clouds
  • Clear skies
Temperature Dewpoint
2°C / 36°F -2°C / 28°F
Humidity Altimeter Pressure
75% 30.25" Hg 1024 hPa